createdAt,value
2017-09-30T00:00:01.023Z,24.40
2017-09-30T00:02:27.360Z,23.80
2017-09-30T00:04:53.608Z,24.30
2017-09-30T00:07:19.858Z,25.07
2017-09-30T00:09:46.891Z,23.30
2017-09-30T00:12:13.114Z,24.13
2017-09-30T00:14:39.372Z,25.70
2017-09-30T00:17:05.642Z,25.40
2017-09-30T00:19:32.019Z,23.30
2017-09-30T00:21:58.265Z,24.17
2017-09-30T00:24:24.513Z,24.87
2017-09-30T00:26:51.475Z,23.77
2017-09-30T00:29:17.731Z,25.73
2017-09-30T00:31:44.034Z,24.50
2017-09-30T00:34:10.278Z,26.60
2017-09-30T00:36:36.523Z,24.30
2017-09-30T00:39:02.914Z,24.90
2017-09-30T00:41:29.153Z,25.30
2017-09-30T00:43:55.390Z,24.60
2017-09-30T00:46:21.637Z,25.40
2017-09-30T00:48:47.963Z,24.23
2017-09-30T00:51:14.209Z,24.37
2017-09-30T00:53:40.454Z,26.17
2017-09-30T00:56:06.705Z,24.00
2017-09-30T00:58:32.937Z,25.97
2017-09-30T01:00:59.209Z,24.60
2017-09-30T01:03:25.441Z,25.20
2017-09-30T01:05:52.430Z,24.47
2017-09-30T01:08:18.719Z,25.10
2017-09-30T01:10:44.953Z,23.83
2017-09-30T01:13:11.186Z,26.90
2017-09-30T01:15:37.453Z,26.53
2017-09-30T01:18:03.673Z,24.87
2017-09-30T01:20:29.894Z,26.73
2017-09-30T01:22:56.151Z,26.57
2017-09-30T01:25:22.394Z,25.90
2017-09-30T01:27:48.638Z,26.03
2017-09-30T01:30:14.909Z,25.97
2017-09-30T01:32:41.150Z,27.33
2017-09-30T01:35:07.370Z,27.60
2017-09-30T01:37:33.615Z,27.07
2017-09-30T01:39:59.850Z,27.03
2017-09-30T01:42:26.118Z,26.20
2017-09-30T01:44:52.410Z,26.57
2017-09-30T01:47:18.645Z,25.63
2017-09-30T01:49:45.026Z,26.77
2017-09-30T01:52:12.034Z,27.10
2017-09-30T01:54:38.266Z,25.83
2017-09-30T01:57:04.515Z,26.13
2017-09-30T01:59:30.750Z,27.23
2017-09-30T02:01:56.984Z,26.73
2017-09-30T02:04:23.217Z,26.90
2017-09-30T02:06:49.487Z,29.63
2017-09-30T02:09:15.718Z,27.40
2017-09-30T02:11:42.701Z,28.57
2017-09-30T02:14:08.962Z,26.70
2017-09-30T02:16:35.262Z,27.27
2017-09-30T02:19:01.502Z,30.07
2017-09-30T02:21:27.762Z,29.23
2017-09-30T02:23:54.010Z,26.40
2017-09-30T02:26:20.988Z,29.17
2017-09-30T02:28:47.262Z,28.00
2017-09-30T02:31:13.491Z,29.83
2017-09-30T02:33:42.266Z,28.00
2017-09-30T02:36:09.306Z,28.23
2017-09-30T02:38:35.521Z,27.47
2017-09-30T02:41:01.754Z,30.70
2017-09-30T02:43:28.050Z,29.43
2017-09-30T02:45:54.284Z,29.33
2017-09-30T02:48:20.523Z,31.00
2017-09-30T02:50:49.394Z,30.80
2017-09-30T02:53:15.629Z,30.37
2017-09-30T02:55:41.846Z,29.43
2017-09-30T02:58:08.122Z,31.20
2017-09-30T03:00:34.346Z,30.10
2017-09-30T03:03:00.576Z,30.47
2017-09-30T03:05:27.625Z,29.50
2017-09-30T03:07:54.574Z,32.23
2017-09-30T03:10:20.808Z,29.27
2017-09-30T03:12:47.032Z,31.83
2017-09-30T03:15:13.241Z,30.70
2017-09-30T03:17:39.479Z,29.47
2017-09-30T03:20:05.722Z,33.27
2017-09-30T03:22:32.689Z,30.00
2017-09-30T03:24:58.913Z,31.33
2017-09-30T03:27:25.151Z,31.20
2017-09-30T03:32:24.417Z,30.50
2017-09-30T03:34:50.669Z,31.40
2017-09-30T03:37:16.887Z,30.73
2017-09-30T03:39:43.133Z,31.10
2017-09-30T03:42:09.368Z,32.10
2017-09-30T03:44:36.331Z,32.20
2017-09-30T03:47:02.557Z,30.03
2017-09-30T03:49:28.792Z,31.20
2017-09-30T03:51:56.728Z,31.07
2017-09-30T03:54:22.949Z,32.90
2017-09-30T03:56:49.995Z,32.83
2017-09-30T03:59:16.210Z,31.53
2017-09-30T04:01:42.481Z,32.83
2017-09-30T04:04:08.725Z,35.77
2017-09-30T04:06:34.970Z,31.73
2017-09-30T04:09:01.190Z,34.60
2017-09-30T04:11:27.453Z,35.30
2017-09-30T04:13:53.670Z,33.90
2017-09-30T04:16:19.905Z,33.10
2017-09-30T04:18:46.161Z,32.00
2017-09-30T04:21:12.378Z,31.57
2017-09-30T04:23:38.601Z,34.70
2017-09-30T04:26:04.838Z,34.23
2017-09-30T04:28:31.045Z,35.33
2017-09-30T04:30:57.262Z,35.93
2017-09-30T04:33:23.507Z,36.80
2017-09-30T04:35:49.717Z,33.87
2017-09-30T04:38:15.943Z,36.20
2017-09-30T04:40:42.289Z,34.17
2017-09-30T04:43:15.456Z,31.30
2017-09-30T04:45:41.704Z,35.93
2017-09-30T04:48:07.931Z,34.27
2017-09-30T04:50:34.157Z,32.87
2017-09-30T04:53:00.494Z,33.30
2017-09-30T04:55:26.709Z,33.60
2017-09-30T04:57:52.934Z,32.03
2017-09-30T05:00:19.273Z,34.73
2017-09-30T05:02:45.502Z,35.50
2017-09-30T05:05:11.717Z,33.50
2017-09-30T05:07:37.970Z,32.57
2017-09-30T05:10:04.193Z,35.23
2017-09-30T05:12:30.443Z,35.00
2017-09-30T05:14:56.686Z,34.70
2017-09-30T05:17:23.650Z,36.40
2017-09-30T05:19:50.609Z,34.93
2017-09-30T05:22:16.833Z,33.67
2017-09-30T05:24:43.066Z,34.73
2017-09-30T05:27:09.305Z,33.50
2017-09-30T05:29:35.533Z,34.20
2017-09-30T05:32:01.810Z,36.93
2017-09-30T05:34:28.042Z,33.40
2017-09-30T05:36:54.274Z,36.60
2017-09-30T05:39:20.484Z,36.70
2017-09-30T05:41:46.712Z,34.27
2017-09-30T05:44:12.956Z,35.90
2017-09-30T05:46:39.174Z,36.10
2017-09-30T05:49:05.393Z,34.63
2017-09-30T05:51:31.665Z,35.00
2017-09-30T05:53:58.842Z,35.43
2017-09-30T05:56:25.077Z,32.40
2017-09-30T05:58:52.041Z,34.30
2017-09-30T06:01:18.273Z,34.17
2017-09-30T06:03:44.492Z,35.80
2017-09-30T06:06:10.734Z,34.57
2017-09-30T06:08:36.953Z,35.33
2017-09-30T06:11:03.170Z,33.87
2017-09-30T06:13:29.414Z,35.57
2017-09-30T06:15:55.626Z,31.83
2017-09-30T06:18:21.839Z,33.63
2017-09-30T06:20:48.130Z,36.60
2017-09-30T06:23:14.365Z,35.67
2017-09-30T06:25:40.584Z,37.50
2017-09-30T06:28:06.813Z,38.50
2017-09-30T06:30:33.038Z,41.77
2017-09-30T06:32:59.263Z,37.13
2017-09-30T06:35:25.514Z,34.67
2017-09-30T06:37:51.754Z,33.50
2017-09-30T06:40:18.654Z,34.23
2017-09-30T06:42:44.971Z,34.30
2017-09-30T06:45:11.206Z,33.23
2017-09-30T06:47:37.422Z,33.93
2017-09-30T06:50:03.710Z,44.90
2017-09-30T06:52:29.928Z,35.30
2017-09-30T06:54:56.978Z,35.30
2017-09-30T06:57:23.269Z,34.83
2017-09-30T06:59:49.492Z,33.97
2017-09-30T07:02:15.722Z,33.73
2017-09-30T07:04:41.993Z,36.60
2017-09-30T07:07:08.223Z,36.13
2017-09-30T07:09:34.464Z,40.47
2017-09-30T07:12:00.721Z,37.73
2017-09-30T07:14:26.957Z,36.70
2017-09-30T07:16:53.177Z,36.67
2017-09-30T07:19:19.456Z,34.97
2017-09-30T07:21:45.693Z,35.37
2017-09-30T07:24:11.926Z,34.93
2017-09-30T07:26:38.164Z,35.07
2017-09-30T07:29:05.205Z,36.70
2017-09-30T07:31:31.515Z,35.10
2017-09-30T07:33:57.906Z,35.37
2017-09-30T07:36:24.138Z,34.63
2017-09-30T07:38:50.362Z,35.40
2017-09-30T07:41:17.374Z,34.20
2017-09-30T07:43:43.614Z,36.00
2017-09-30T07:46:10.101Z,36.57
2017-09-30T07:48:36.333Z,36.77
2017-09-30T07:51:02.573Z,34.63
2017-09-30T07:53:29.455Z,35.63
2017-09-30T07:55:55.803Z,35.73
2017-09-30T07:58:22.782Z,36.97
2017-09-30T08:00:49.010Z,46.77
2017-09-30T08:03:15.257Z,38.97
2017-09-30T08:05:41.486Z,38.07
2017-09-30T08:08:07.715Z,37.50
2017-09-30T08:10:34.806Z,33.87
2017-09-30T08:13:01.925Z,35.17
2017-09-30T08:15:28.142Z,33.90
2017-09-30T08:17:54.422Z,35.33
2017-09-30T08:20:20.667Z,35.60
2017-09-30T08:22:46.983Z,34.50
2017-09-30T08:25:13.335Z,33.50
2017-09-30T08:27:40.296Z,36.80
2017-09-30T08:30:07.258Z,37.47
2017-09-30T08:32:33.517Z,34.50
2017-09-30T08:34:59.794Z,36.30
2017-09-30T08:37:26.770Z,36.57
2017-09-30T08:39:53.021Z,34.80
2017-09-30T08:42:19.285Z,37.40
2017-09-30T08:44:48.333Z,36.23
2017-09-30T08:47:15.370Z,36.43
2017-09-30T08:49:41.633Z,38.00
2017-09-30T08:52:07.886Z,37.27
2017-09-30T08:54:34.676Z,38.60
2017-09-30T08:57:03.644Z,35.80
2017-09-30T08:59:29.889Z,40.30
2017-09-30T09:01:56.869Z,37.13
2017-09-30T09:04:23.125Z,36.90
2017-09-30T09:06:49.367Z,38.70
2017-09-30T09:09:15.616Z,35.80
2017-09-30T09:11:41.843Z,35.37
2017-09-30T09:14:08.071Z,37.77
2017-09-30T09:16:34.347Z,38.33
2017-09-30T09:19:01.614Z,41.97
2017-09-30T09:21:27.872Z,38.10
2017-09-30T09:23:54.142Z,34.23
2017-09-30T09:26:20.370Z,34.70
2017-09-30T09:28:46.590Z,35.03
2017-09-30T09:31:13.594Z,36.50
2017-09-30T09:33:39.815Z,34.50
2017-09-30T09:36:06.038Z,37.00
2017-09-30T09:38:32.362Z,37.63
2017-09-30T09:40:58.601Z,36.93
2017-09-30T09:43:24.825Z,36.47
2017-09-30T09:45:52.059Z,37.43
2017-09-30T09:48:18.283Z,34.60
2017-09-30T09:50:44.510Z,38.93
2017-09-30T09:53:10.745Z,36.63
2017-09-30T09:55:36.954Z,34.77
2017-09-30T09:58:03.249Z,34.93
2017-09-30T10:00:29.502Z,35.50
2017-09-30T10:02:55.721Z,33.90
2017-09-30T10:05:21.990Z,34.53
2017-09-30T10:07:48.237Z,37.23
2017-09-30T10:10:15.210Z,38.30
2017-09-30T10:12:41.429Z,33.93
2017-09-30T10:15:07.661Z,37.17
2017-09-30T10:17:33.881Z,36.90
2017-09-30T10:20:00.113Z,33.90
2017-09-30T10:22:26.353Z,31.97
2017-09-30T10:24:52.561Z,34.20
2017-09-30T10:27:18.782Z,33.10
2017-09-30T10:29:45.050Z,33.33
2017-09-30T10:32:12.002Z,36.37
2017-09-30T10:34:38.209Z,37.50
2017-09-30T10:37:04.461Z,39.77
2017-09-30T10:39:30.681Z,37.07
2017-09-30T10:41:56.897Z,37.73
2017-09-30T10:44:23.129Z,39.30
2017-09-30T10:46:49.368Z,37.53
2017-09-30T10:49:15.747Z,36.17
2017-09-30T10:51:42.010Z,39.00
2017-09-30T10:54:08.444Z,37.10
2017-09-30T10:56:35.518Z,34.20
2017-09-30T10:59:01.934Z,35.40
2017-09-30T11:01:28.180Z,35.50
2017-09-30T11:03:54.416Z,34.73
2017-09-30T11:06:21.405Z,35.20
2017-09-30T11:08:47.685Z,35.37
2017-09-30T11:11:14.774Z,36.10
2017-09-30T11:13:41.038Z,34.03
2017-09-30T11:16:07.256Z,36.50
2017-09-30T11:18:34.246Z,35.90
2017-09-30T11:21:00.535Z,34.23
2017-09-30T11:23:26.799Z,36.00
2017-09-30T11:25:53.030Z,36.23
2017-09-30T11:28:19.285Z,35.07
2017-09-30T11:30:45.512Z,35.27
2017-09-30T11:33:11.741Z,35.90
2017-09-30T11:35:37.995Z,34.10
2017-09-30T11:38:04.218Z,34.33
2017-09-30T11:40:30.454Z,34.40
2017-09-30T11:42:57.436Z,36.20
2017-09-30T11:45:23.654Z,35.53
2017-09-30T11:47:49.865Z,34.07
2017-09-30T11:50:16.846Z,33.87
2017-09-30T11:52:43.102Z,38.57
2017-09-30T11:55:09.373Z,34.70
2017-09-30T11:57:35.674Z,35.30
2017-09-30T12:00:02.171Z,33.93
2017-09-30T12:02:28.390Z,37.40
2017-09-30T12:04:54.633Z,34.70
2017-09-30T12:07:20.861Z,36.10
2017-09-30T12:09:47.070Z,36.60
2017-09-30T12:12:13.385Z,36.80
2017-09-30T12:14:40.382Z,35.60
2017-09-30T12:17:06.606Z,38.17
2017-09-30T12:19:32.897Z,38.37
2017-09-30T12:21:59.142Z,35.47
2017-09-30T12:24:25.385Z,34.67
2017-09-30T12:26:51.639Z,35.67
2017-09-30T12:29:18.312Z,36.10
2017-09-30T12:31:44.545Z,35.80
2017-09-30T12:34:10.789Z,33.83
2017-09-30T12:36:37.751Z,36.87
2017-09-30T12:39:04.001Z,38.43
2017-09-30T12:41:30.277Z,37.43
2017-09-30T12:43:56.500Z,34.83
2017-09-30T12:46:22.738Z,34.67
2017-09-30T12:48:49.014Z,34.90
2017-09-30T12:51:15.969Z,34.57
2017-09-30T12:53:42.186Z,37.07
2017-09-30T12:56:08.458Z,36.30
2017-09-30T12:58:34.692Z,37.57
2017-09-30T13:01:01.014Z,34.10
2017-09-30T13:03:28.039Z,34.77
2017-09-30T13:05:55.089Z,35.30
2017-09-30T13:10:54.217Z,35.40
2017-09-30T13:13:20.462Z,37.23
2017-09-30T13:15:46.695Z,37.10
2017-09-30T13:18:13.730Z,37.47
2017-09-30T13:20:39.964Z,40.40
2017-09-30T13:23:06.191Z,38.43
2017-09-30T13:25:32.449Z,39.23
2017-09-30T13:27:58.678Z,38.40
2017-09-30T13:30:24.903Z,37.23
2017-09-30T13:32:51.161Z,44.37
2017-09-30T13:35:17.389Z,42.43
2017-09-30T13:37:43.626Z,41.40
2017-09-30T13:40:09.893Z,37.20
2017-09-30T13:42:36.963Z,37.67
2017-09-30T13:45:03.191Z,37.87
2017-09-30T13:47:29.488Z,38.70
2017-09-30T13:49:55.752Z,41.47
2017-09-30T13:52:21.985Z,37.33
2017-09-30T13:54:49.053Z,38.57
2017-09-30T13:57:15.282Z,36.87
2017-09-30T13:59:41.509Z,39.70
2017-09-30T14:02:07.878Z,37.40
2017-09-30T14:04:34.133Z,39.00
2017-09-30T14:07:01.197Z,35.80
2017-09-30T14:09:28.306Z,38.30
2017-09-30T14:11:54.558Z,34.07
2017-09-30T14:14:22.573Z,38.30
2017-09-30T14:16:48.822Z,35.27
2017-09-30T14:19:15.062Z,35.17
2017-09-30T14:21:41.308Z,34.20
2017-09-30T14:24:07.578Z,34.97
2017-09-30T14:26:33.813Z,34.97
2017-09-30T14:29:00.058Z,34.83
2017-09-30T14:31:26.296Z,36.63
2017-09-30T14:33:53.452Z,38.47
2017-09-30T14:36:20.498Z,38.57
2017-09-30T14:38:46.754Z,38.50
2017-09-30T14:41:12.995Z,36.80
2017-09-30T14:43:39.225Z,35.63
2017-09-30T14:46:05.487Z,35.80
2017-09-30T14:48:31.893Z,34.73
2017-09-30T14:50:58.138Z,36.40
2017-09-30T14:53:24.406Z,34.57
2017-09-30T14:55:50.649Z,34.80
2017-09-30T14:58:16.866Z,36.07
2017-09-30T15:00:43.119Z,35.63
2017-09-30T15:03:09.455Z,33.73
2017-09-30T15:05:35.719Z,34.20
2017-09-30T15:08:02.735Z,36.60
2017-09-30T15:10:28.964Z,34.77
2017-09-30T15:12:55.190Z,35.73
2017-09-30T15:15:21.471Z,34.07
2017-09-30T15:17:47.709Z,33.60
2017-09-30T15:20:13.955Z,37.17
2017-09-30T15:22:40.217Z,36.40
2017-09-30T15:25:06.447Z,35.93
2017-09-30T15:27:32.782Z,33.27
2017-09-30T15:29:59.029Z,35.87
2017-09-30T15:32:25.256Z,35.70
2017-09-30T15:34:52.251Z,34.50
2017-09-30T15:37:19.274Z,33.93
2017-09-30T15:39:46.203Z,35.40
2017-09-30T15:42:12.497Z,39.13
2017-09-30T15:44:39.269Z,40.77
2017-09-30T15:47:05.534Z,37.63
2017-09-30T15:49:31.791Z,38.13
2017-09-30T15:51:58.094Z,39.07
2017-09-30T15:54:25.222Z,38.57
2017-09-30T15:56:51.445Z,37.20
2017-09-30T15:59:17.785Z,40.07
2017-09-30T16:01:44.175Z,38.30
2017-09-30T16:04:11.238Z,39.03
2017-09-30T16:06:37.747Z,38.30
2017-09-30T16:09:04.189Z,35.20
2017-09-30T16:11:31.158Z,36.77
2017-09-30T16:13:58.302Z,33.73
2017-09-30T16:16:24.538Z,41.20
2017-09-30T16:18:50.866Z,37.70
2017-09-30T16:21:17.853Z,39.03
2017-09-30T16:23:44.122Z,40.20
2017-09-30T16:26:11.058Z,38.03
2017-09-30T16:28:37.399Z,39.20
2017-09-30T16:31:03.671Z,35.67
2017-09-30T16:33:29.913Z,35.60
2017-09-30T16:35:56.290Z,34.07
2017-09-30T16:38:22.570Z,36.10
2017-09-30T16:40:48.830Z,35.57
2017-09-30T16:43:15.124Z,37.30
2017-09-30T16:45:42.247Z,37.80
2017-09-30T16:48:08.549Z,36.77
2017-09-30T16:50:34.827Z,35.40
2017-09-30T16:53:01.079Z,34.67
2017-09-30T16:55:27.427Z,35.63
2017-09-30T16:57:53.693Z,36.87
2017-09-30T17:00:19.965Z,37.20
2017-09-30T17:02:46.223Z,37.80
2017-09-30T17:05:12.627Z,38.20
2017-09-30T17:07:38.882Z,38.27
2017-09-30T17:10:05.189Z,38.57
2017-09-30T17:12:32.233Z,37.60
2017-09-30T17:14:58.490Z,36.23
2017-09-30T17:17:24.726Z,34.63
2017-09-30T17:19:51.050Z,35.60
2017-09-30T17:22:18.945Z,33.50
2017-09-30T17:24:45.194Z,34.10
2017-09-30T17:27:11.452Z,36.10
2017-09-30T17:29:37.681Z,34.90
2017-09-30T17:32:03.909Z,34.97
2017-09-30T17:34:30.206Z,32.23
2017-09-30T17:36:56.478Z,33.77
2017-09-30T17:39:22.714Z,34.90
2017-09-30T17:41:49.689Z,34.17
2017-09-30T17:44:15.942Z,33.07
2017-09-30T17:46:42.170Z,32.93
2017-09-30T17:49:08.426Z,32.20
2017-09-30T17:51:34.634Z,31.40
2017-09-30T17:54:00.857Z,31.50
2017-09-30T17:56:27.142Z,31.63
2017-09-30T17:58:53.373Z,35.10
2017-09-30T18:01:19.611Z,35.43
2017-09-30T18:03:45.865Z,33.80
2017-09-30T18:06:12.224Z,32.30
2017-09-30T18:08:40.078Z,30.20
2017-09-30T18:11:06.315Z,29.97
2017-09-30T18:13:32.590Z,32.27
2017-09-30T18:15:58.823Z,32.30
2017-09-30T18:18:25.078Z,33.70
2017-09-30T18:20:52.054Z,31.67
2017-09-30T18:23:18.277Z,32.67
2017-09-30T18:25:44.512Z,30.70
2017-09-30T18:28:10.789Z,29.33
2017-09-30T18:30:37.039Z,29.00
2017-09-30T18:33:03.312Z,29.30
2017-09-30T18:35:29.558Z,30.33
2017-09-30T18:37:55.790Z,31.40
2017-09-30T18:40:22.078Z,30.80
2017-09-30T18:42:48.333Z,29.57
2017-09-30T18:45:14.651Z,29.37
2017-09-30T18:47:41.634Z,26.40
2017-09-30T18:50:07.877Z,28.00
2017-09-30T18:52:34.098Z,27.80
2017-09-30T18:55:00.350Z,28.63
2017-09-30T18:57:26.839Z,27.63
2017-09-30T18:59:53.066Z,28.03
2017-09-30T19:02:19.363Z,27.87
2017-09-30T19:04:45.779Z,28.87
2017-09-30T19:07:12.377Z,28.93
2017-09-30T19:09:38.703Z,29.07
2017-09-30T19:12:05.916Z,27.93
2017-09-30T19:14:32.269Z,28.43
2017-09-30T19:16:58.535Z,28.03
2017-09-30T19:19:24.746Z,29.90
2017-09-30T19:21:52.679Z,27.87
2017-09-30T19:24:19.717Z,26.57
2017-09-30T19:26:45.926Z,28.87
2017-09-30T19:29:16.086Z,27.87
2017-09-30T19:31:46.124Z,28.67
2017-09-30T19:34:13.490Z,27.63
2017-09-30T19:36:40.566Z,28.67
2017-09-30T19:39:06.873Z,28.90
2017-09-30T19:41:34.091Z,30.07
2017-09-30T19:44:00.487Z,28.70
2017-09-30T19:46:27.665Z,28.30
2017-09-30T19:48:54.001Z,28.00
2017-09-30T19:51:20.366Z,30.00
2017-09-30T19:53:49.786Z,28.00
2017-09-30T19:56:16.066Z,26.50
2017-09-30T19:58:42.306Z,29.17
2017-09-30T20:01:08.599Z,29.57
2017-09-30T20:03:35.629Z,28.87
2017-09-30T20:06:02.647Z,30.43
2017-09-30T20:08:28.985Z,28.43
2017-09-30T20:10:55.243Z,28.87
2017-09-30T20:13:21.502Z,29.63
2017-09-30T20:15:47.786Z,27.40
2017-09-30T20:18:14.056Z,29.20
2017-09-30T20:20:40.302Z,29.57
2017-09-30T20:23:06.533Z,25.77
2017-09-30T20:25:32.922Z,16.70
2017-09-30T20:27:59.910Z,13.23
2017-09-30T20:30:26.257Z,10.43
2017-09-30T20:32:53.289Z,9.13
2017-09-30T20:35:20.250Z,7.40
2017-09-30T20:37:46.489Z,4.70
2017-09-30T20:40:12.850Z,5.13
2017-09-30T20:42:39.156Z,5.70
2017-09-30T20:45:06.122Z,3.53
2017-09-30T20:47:32.523Z,4.23
2017-09-30T20:49:58.779Z,3.80
2017-09-30T20:52:25.156Z,3.30
2017-09-30T20:54:51.416Z,4.10
2017-09-30T20:57:18.562Z,11.00
2017-09-30T20:59:44.815Z,18.10
2017-09-30T21:02:11.874Z,4.60
2017-09-30T21:04:38.102Z,4.40
2017-09-30T21:07:04.686Z,4.70
2017-09-30T21:09:32.278Z,3.87
2017-09-30T21:11:58.695Z,2.70
2017-09-30T21:14:24.970Z,2.77
2017-09-30T21:16:51.201Z,2.53
2017-09-30T21:19:17.628Z,5.30
2017-09-30T21:21:43.908Z,4.60
2017-09-30T21:24:10.791Z,16.47
2017-09-30T21:26:37.022Z,9.60
2017-09-30T21:29:03.269Z,3.67
2017-09-30T21:31:30.221Z,3.57
2017-09-30T21:33:56.430Z,2.87
2017-09-30T21:36:23.402Z,3.03
2017-09-30T21:38:49.680Z,3.77
2017-09-30T21:41:15.942Z,3.57
2017-09-30T21:43:42.178Z,2.50
2017-09-30T21:46:08.592Z,2.97
2017-09-30T21:48:34.832Z,4.97
2017-09-30T21:51:01.198Z,9.03
2017-09-30T21:53:27.522Z,7.60
2017-09-30T21:55:53.739Z,7.20
2017-09-30T21:58:20.070Z,4.57
2017-09-30T22:00:46.385Z,4.10
2017-09-30T22:03:12.703Z,4.33
2017-09-30T22:05:38.978Z,5.33
2017-09-30T22:08:05.192Z,4.23
2017-09-30T22:10:31.601Z,5.00
2017-09-30T22:12:58.683Z,4.37
2017-09-30T22:15:25.973Z,4.60
2017-09-30T22:17:53.068Z,3.77
2017-09-30T22:20:20.434Z,4.53
2017-09-30T22:22:47.465Z,4.13
2017-09-30T22:25:13.948Z,5.10
2017-09-30T22:27:40.178Z,4.03
2017-09-30T22:30:06.393Z,3.67
2017-09-30T22:32:32.615Z,6.77
2017-09-30T22:34:59.598Z,5.10
2017-09-30T22:37:25.821Z,4.70
2017-09-30T22:39:52.928Z,4.47
2017-09-30T22:42:19.213Z,10.77
2017-09-30T22:44:45.430Z,47.37
2017-09-30T22:47:11.645Z,25.50
2017-09-30T22:49:38.634Z,7.57
2017-09-30T22:52:05.698Z,5.60
2017-09-30T22:54:32.880Z,4.97
2017-09-30T22:57:00.042Z,5.70
2017-09-30T22:59:26.406Z,6.60
2017-09-30T23:01:54.415Z,5.13
2017-09-30T23:04:20.661Z,4.90
2017-09-30T23:06:47.987Z,5.17
2017-09-30T23:09:14.405Z,5.93
2017-09-30T23:11:41.820Z,5.87
2017-09-30T23:14:09.922Z,5.03
2017-09-30T23:16:36.142Z,5.80
2017-09-30T23:19:02.410Z,4.50
2017-09-30T23:21:28.658Z,11.80
2017-09-30T23:23:55.118Z,18.83
2017-09-30T23:26:21.393Z,15.57
2017-09-30T23:28:47.706Z,8.00
2017-09-30T23:31:14.659Z,5.97
2017-09-30T23:33:41.338Z,6.57
2017-09-30T23:36:07.792Z,5.80
2017-09-30T23:38:34.060Z,7.40
2017-09-30T23:41:00.301Z,5.37
2017-09-30T23:43:26.551Z,5.63
2017-09-30T23:45:52.778Z,5.13
2017-09-30T23:48:19.041Z,7.03
2017-09-30T23:50:45.306Z,6.63
2017-09-30T23:53:11.557Z,5.90
2017-09-30T23:55:37.802Z,6.13
2017-09-30T23:58:04.044Z,6.23
